Time;durP1;ratioP1;P1;durP2;ratioP2;P2;SDS_P1;SDS_P2;PMS_P1;PMS_P2;Temp;Humidity;BMP_temperature;BMP_pressure;BME280_temperature;BME280_humidity;BME280_pressure;Samples;Min_cycle;Max_cycle;Signal;HPM_P1;HPM_P2
2022/08/02 00:00:58;;;;;;;;;;;27.30;43.10;;;;;;1539396;76;680;-60
2022/08/02 00:02:59;;;;;;;;;;;27.30;43.10;;;;;;1551093;75;1944;-59
2022/08/02 00:05:01;;;;;;;;;;;27.30;43.20;;;;;;1527557;76;752;-60
2022/08/02 00:07:03;;;;;;;;;;;27.30;43.10;;;;;;1545566;75;762;-58
2022/08/02 00:09:05;;;;;;;;;;;27.30;43.20;;;;;;1564826;75;704;-60
2022/08/02 00:11:07;;;;;;;;;;;27.30;43.20;;;;;;1562021;75;813;-59
2022/08/02 00:13:09;;;;;;;;;;;27.30;43.30;;;;;;1555510;75;1108;-58
2022/08/02 00:15:11;;;;;;;;;;;27.40;43.30;;;;;;1542572;75;653;-59
2022/08/02 00:17:13;;;;;;;;;;;27.30;43.30;;;;;;1546419;75;1362;-59
2022/08/02 00:19:15;;;;;;;;;;;27.30;43.30;;;;;;1535444;75;687;-59
2022/08/02 00:21:17;;;;;;;;;;;27.30;43.40;;;;;;1540284;76;729;-61
2022/08/02 00:23:18;;;;;;;;;;;27.30;43.40;;;;;;1550577;75;1955;-59
2022/08/02 00:25:20;;;;;;;;;;;27.40;43.40;;;;;;1543040;75;646;-59
2022/08/02 00:27:22;;;;;;;;;;;27.30;43.30;;;;;;1555589;75;646;-58
2022/08/02 00:29:24;;;;;;;;;;;27.30;43.40;;;;;;1553265;75;785;-58
2022/08/02 00:31:26;;;;;;;;;;;27.30;43.40;;;;;;1554048;75;1552;-59
2022/08/02 00:33:28;;;;;;;;;;;27.30;43.40;;;;;;1542374;75;1070;-60
2022/08/02 00:35:30;;;;;;;;;;;27.30;43.40;;;;;;1534866;75;701;-61
2022/08/02 00:37:32;;;;;;;;;;;27.40;43.40;;;;;;1556275;75;737;-59
2022/08/02 00:39:35;;;;;;;;;;;27.30;43.40;;;;;;1547634;75;746;-59
2022/08/02 00:41:38;;;;;;;;;;;27.30;43.40;;;;;;1557526;75;1947;-61
2022/08/02 00:43:40;;;;;;;;;;;27.40;43.40;;;;;;1561116;75;1867;-59
2022/08/02 00:45:42;;;;;;;;;;;27.30;43.40;;;;;;1564129;74;1446;-57
2022/08/02 00:47:44;;;;;;;;;;;27.30;43.40;;;;;;1554832;75;713;-58
2022/08/02 00:49:46;;;;;;;;;;;27.30;43.40;;;;;;1564471;75;736;-59
2022/08/02 00:51:48;;;;;;;;;;;27.30;43.40;;;;;;1561216;75;693;-57
2022/08/02 00:53:50;;;;;;;;;;;27.30;43.40;;;;;;1557111;75;1190;-58
2022/08/02 00:55:52;;;;;;;;;;;27.30;43.40;;;;;;1556247;75;697;-57
2022/08/02 00:57:54;;;;;;;;;;;27.40;43.40;;;;;;1554741;75;690;-59
2022/08/02 00:59:56;;;;;;;;;;;27.40;43.40;;;;;;1555084;76;1547;-58
2022/08/02 01:01:58;;;;;;;;;;;27.40;43.40;;;;;;1557252;75;1943;-59
2022/08/02 01:03:59;;;;;;;;;;;27.30;43.40;;;;;;1564351;75;687;-59
2022/08/02 01:06:01;;;;;;;;;;;27.30;43.40;;;;;;1550385;75;655;-59
2022/08/02 01:08:03;;;;;;;;;;;27.20;43.50;;;;;;1554599;74;670;-57
2022/08/02 01:10:05;;;;;;;;;;;27.30;43.60;;;;;;1557429;75;683;-59
2022/08/02 01:12:07;;;;;;;;;;;27.30;43.50;;;;;;1557945;75;1143;-60
2022/08/02 01:14:10;;;;;;;;;;;27.30;43.50;;;;;;1559123;75;1625;-59
2022/08/02 01:16:13;;;;;;;;;;;27.30;43.50;;;;;;1563474;75;694;-59
2022/08/02 01:20:46;;;;;;;;;;;27.30;43.50;;;;;;1560036;74;697;-59
2022/08/02 01:22:49;;;;;;;;;;;27.30;43.50;;;;;;1554223;74;1903;-58
2022/08/02 01:24:53;;;;;;;;;;;27.20;43.50;;;;;;1564141;75;1844;-59
2022/08/02 01:26:56;;;;;;;;;;;27.30;43.50;;;;;;1560186;75;769;-57
2022/08/02 01:29:01;;;;;;;;;;;27.30;43.60;;;;;;1562785;75;1754;-59
2022/08/02 01:31:20;;;;;;;;;;;27.30;43.60;;;;;;1562136;75;775;-59
2022/08/02 01:33:22;;;;;;;;;;;27.30;43.60;;;;;;1564005;75;1138;-59
2022/08/02 01:35:28;;;;;;;;;;;27.30;43.50;;;;;;1558847;75;732;-59
2022/08/02 01:37:34;;;;;;;;;;;27.20;43.50;;;;;;1560958;75;654;-56
2022/08/02 01:39:36;;;;;;;;;;;27.30;43.50;;;;;;1561931;75;1815;-56
2022/08/02 01:41:38;;;;;;;;;;;27.20;43.50;;;;;;1570490;75;1556;-58
2022/08/02 01:43:39;;;;;;;;;;;27.20;43.60;;;;;;1573196;75;1942;-59
2022/08/02 01:45:41;;;;;;;;;;;27.20;43.60;;;;;;1564171;75;693;-55
2022/08/02 01:47:43;;;;;;;;;;;27.20;43.60;;;;;;1566776;75;949;-57
2022/08/02 01:49:46;;;;;;;;;;;27.20;43.60;;;;;;1568587;75;720;-57
2022/08/02 01:54:09;;;;;;;;;;;27.20;43.60;;;;;;1555149;75;1674;-60
2022/08/02 01:56:11;;;;;;;;;;;27.20;43.60;;;;;;1561407;74;1581;-56
2022/08/02 01:58:14;;;;;;;;;;;27.30;43.60;;;;;;1563937;74;720;-59
2022/08/02 02:00:16;;;;;;;;;;;27.30;43.60;;;;;;1564561;74;689;-59
2022/08/02 02:02:18;;;;;;;;;;;27.30;43.60;;;;;;1571281;74;1959;-60
2022/08/02 02:04:20;;;;;;;;;;;27.30;43.60;;;;;;1566821;75;747;-59
2022/08/02 02:06:22;;;;;;;;;;;27.30;43.70;;;;;;1563403;74;651;-58
2022/08/02 02:08:28;;;;;;;;;;;27.30;43.60;;;;;;1569019;75;721;-59
2022/08/02 02:10:31;;;;;;;;;;;27.30;43.70;;;;;;1568716;74;1569;-59
2022/08/02 02:12:33;;;;;;;;;;;27.30;43.70;;;;;;1557231;75;1153;-59
2022/08/02 02:14:35;;;;;;;;;;;27.30;43.70;;;;;;1561181;74;773;-60
2022/08/02 02:16:37;;;;;;;;;;;27.30;43.60;;;;;;1569485;75;680;-58
2022/08/02 02:18:39;;;;;;;;;;;27.30;43.60;;;;;;1559893;75;707;-57
2022/08/02 02:20:42;;;;;;;;;;;27.20;43.70;;;;;;1557882;75;709;-58
2022/08/02 02:22:44;;;;;;;;;;;27.30;43.60;;;;;;1563187;75;1926;-60
2022/08/02 02:24:46;;;;;;;;;;;27.30;43.60;;;;;;1566758;75;1585;-60
2022/08/02 02:26:48;;;;;;;;;;;27.30;43.60;;;;;;1559452;75;935;-60
2022/08/02 02:28:49;;;;;;;;;;;27.40;43.60;;;;;;1579645;75;737;-57
2022/08/02 02:30:52;;;;;;;;;;;27.30;43.60;;;;;;1565661;75;826;-58
2022/08/02 02:32:55;;;;;;;;;;;27.20;43.60;;;;;;1554263;74;1176;-58
2022/08/02 02:34:57;;;;;;;;;;;27.30;43.60;;;;;;1557970;75;722;-59
2022/08/02 02:37:00;;;;;;;;;;;27.30;43.60;;;;;;1546797;75;801;-59
2022/08/02 02:39:03;;;;;;;;;;;27.30;43.60;;;;;;1566065;75;1555;-57
2022/08/02 02:41:09;;;;;;;;;;;27.30;43.70;;;;;;1559536;75;671;-59
2022/08/02 02:43:09;;;;;;;;;;;27.30;43.60;;;;;;1554661;75;1932;-58
2022/08/02 02:45:11;;;;;;;;;;;27.30;43.60;;;;;;1567854;75;714;-59
2022/08/02 02:47:14;;;;;;;;;;;27.30;43.60;;;;;;1573750;75;717;-57
2022/08/02 02:49:15;;;;;;;;;;;27.30;43.60;;;;;;1560462;75;812;-59
2022/08/02 02:51:17;;;;;;;;;;;27.30;43.60;;;;;;1546616;75;670;-59
2022/08/02 02:53:19;;;;;;;;;;;27.30;43.60;;;;;;1574297;75;1389;-57
2022/08/02 02:55:21;;;;;;;;;;;27.30;43.60;;;;;;1558815;75;677;-56
2022/08/02 02:57:23;;;;;;;;;;;27.30;43.60;;;;;;1554983;75;806;-59
2022/08/02 02:59:25;;;;;;;;;;;27.40;43.60;;;;;;1551312;75;777;-60
2022/08/02 03:01:27;;;;;;;;;;;27.30;43.60;;;;;;1564142;75;799;-58
2022/08/02 03:03:29;;;;;;;;;;;27.30;43.60;;;;;;1554349;75;1955;-60
2022/08/02 03:05:31;;;;;;;;;;;27.30;43.60;;;;;;1556145;75;689;-57
2022/08/02 03:07:33;;;;;;;;;;;27.30;43.60;;;;;;1563357;75;737;-58
2022/08/02 03:09:35;;;;;;;;;;;27.30;43.60;;;;;;1575995;74;672;-58
2022/08/02 03:11:37;;;;;;;;;;;27.30;43.60;;;;;;1559052;75;812;-58
2022/08/02 03:13:39;;;;;;;;;;;27.40;43.60;;;;;;1566359;75;1141;-57
2022/08/02 03:15:41;;;;;;;;;;;27.30;43.60;;;;;;1555881;75;698;-60
2022/08/02 03:17:44;;;;;;;;;;;27.30;43.60;;;;;;1556484;75;681;-56
2022/08/02 03:19:46;;;;;;;;;;;27.30;43.60;;;;;;1567973;75;1308;-59
2022/08/02 03:21:48;;;;;;;;;;;27.30;43.60;;;;;;1549220;75;797;-59
2022/08/02 03:23:50;;;;;;;;;;;27.40;43.60;;;;;;1535456;76;1951;-59
2022/08/02 03:25:52;;;;;;;;;;;27.30;43.60;;;;;;1542940;75;662;-57
2022/08/02 03:27:54;;;;;;;;;;;27.30;43.60;;;;;;1547665;75;706;-60
2022/08/02 03:29:55;;;;;;;;;;;27.20;43.60;;;;;;1542937;75;744;-60
2022/08/02 03:31:57;;;;;;;;;;;27.30;43.60;;;;;;1542534;75;1131;-60
2022/08/02 03:33:59;;;;;;;;;;;27.20;43.60;;;;;;1541291;75;1367;-59
2022/08/02 03:36:03;;;;;;;;;;;27.30;43.60;;;;;;1537258;75;748;-60
2022/08/02 03:38:05;;;;;;;;;;;27.30;43.60;;;;;;1549926;75;702;-60
2022/08/02 03:40:08;;;;;;;;;;;27.20;43.60;;;;;;1533383;75;739;-59
2022/08/02 03:42:09;;;;;;;;;;;27.30;43.70;;;;;;1537611;75;1145;-60
2022/08/02 03:44:11;;;;;;;;;;;27.30;43.70;;;;;;1538113;74;1949;-59
2022/08/02 03:46:15;;;;;;;;;;;27.30;43.70;;;;;;1532083;75;683;-59
2022/08/02 03:48:17;;;;;;;;;;;27.30;43.70;;;;;;1531770;75;1382;-60
2022/08/02 03:50:21;;;;;;;;;;;27.30;43.70;;;;;;1554614;75;777;-60
2022/08/02 03:52:23;;;;;;;;;;;27.30;43.60;;;;;;1534910;75;1634;-60
2022/08/02 03:54:24;;;;;;;;;;;27.30;43.60;;;;;;1549417;75;644;-61
2022/08/02 03:56:26;;;;;;;;;;;27.30;43.70;;;;;;1534406;75;696;-58
2022/08/02 03:58:28;;;;;;;;;;;27.30;43.60;;;;;;1547040;75;768;-59
2022/08/02 04:00:30;;;;;;;;;;;27.30;43.60;;;;;;1547073;75;680;-60
2022/08/02 04:02:32;;;;;;;;;;;27.30;43.60;;;;;;1540873;75;1563;-59
2022/08/02 04:04:34;;;;;;;;;;;27.30;43.50;;;;;;1533025;75;1935;-60
2022/08/02 04:06:36;;;;;;;;;;;27.30;43.60;;;;;;1531565;75;919;-60
2022/08/02 04:08:38;;;;;;;;;;;27.20;43.50;;;;;;1535401;75;686;-60
2022/08/02 04:12:59;;;;;;;;;;;27.30;43.50;;;;;;1534032;75;1116;-59
2022/08/02 04:15:02;;;;;;;;;;;27.20;43.40;;;;;;1522695;75;811;-59
2022/08/02 04:17:08;;;;;;;;;;;27.20;43.40;;;;;;1540528;75;1533;-59
2022/08/02 04:19:10;;;;;;;;;;;27.20;43.40;;;;;;1549173;75;777;-59
2022/08/02 04:21:13;;;;;;;;;;;27.30;43.30;;;;;;1536967;75;740;-57
2022/08/02 04:23:15;;;;;;;;;;;27.20;43.30;;;;;;1548982;75;1940;-60
2022/08/02 04:25:17;;;;;;;;;;;27.20;43.30;;;;;;1535456;75;753;-59
2022/08/02 04:27:19;;;;;;;;;;;27.30;43.20;;;;;;1543480;75;728;-58
2022/08/02 04:29:21;;;;;;;;;;;27.20;43.20;;;;;;1536018;75;677;-58
2022/08/02 04:31:22;;;;;;;;;;;27.30;43.20;;;;;;1537943;76;1354;-59
2022/08/02 04:33:24;;;;;;;;;;;27.30;43.10;;;;;;1549570;75;1163;-60
2022/08/02 04:35:26;;;;;;;;;;;27.30;43.00;;;;;;1543296;75;828;-61
2022/08/02 04:37:28;;;;;;;;;;;27.20;42.90;;;;;;1543438;75;631;-62
2022/08/02 04:39:30;;;;;;;;;;;27.30;42.90;;;;;;1536612;75;734;-59
2022/08/02 04:41:38;;;;;;;;;;;27.30;42.90;;;;;;1538175;75;722;-62
2022/08/02 04:43:40;;;;;;;;;;;27.30;43.00;;;;;;1548790;75;1946;-58
2022/08/02 04:45:42;;;;;;;;;;;27.20;42.90;;;;;;1535386;75;1434;-59
2022/08/02 04:47:44;;;;;;;;;;;27.10;42.90;;;;;;1532002;75;697;-58
2022/08/02 04:49:46;;;;;;;;;;;27.20;42.90;;;;;;1550537;75;635;-57
2022/08/02 04:51:48;;;;;;;;;;;27.20;43.00;;;;;;1536513;75;726;-59
2022/08/02 04:53:50;;;;;;;;;;;27.20;43.00;;;;;;1545573;75;1075;-59
2022/08/02 04:55:52;;;;;;;;;;;27.10;43.10;;;;;;1549777;75;796;-60
2022/08/02 04:57:54;;;;;;;;;;;27.20;43.10;;;;;;1556201;75;707;-61
2022/08/02 04:59:56;;;;;;;;;;;27.20;43.10;;;;;;1556095;75;1619;-59
2022/08/02 05:01:58;;;;;;;;;;;27.20;43.10;;;;;;1532054;75;1141;-60
2022/08/02 05:03:59;;;;;;;;;;;27.10;43.10;;;;;;1552878;76;1939;-57
2022/08/02 05:06:01;;;;;;;;;;;27.10;43.10;;;;;;1531491;75;683;-58
2022/08/02 05:08:04;;;;;;;;;;;27.10;43.10;;;;;;1549380;75;807;-60
2022/08/02 05:10:06;;;;;;;;;;;27.20;43.10;;;;;;1540598;75;699;-59
2022/08/02 05:12:09;;;;;;;;;;;27.20;43.20;;;;;;1543568;75;1622;-59
2022/08/02 05:14:10;;;;;;;;;;;27.20;43.20;;;;;;1542215;75;760;-60
2022/08/02 05:16:12;;;;;;;;;;;27.20;43.30;;;;;;1542770;75;693;-58
2022/08/02 05:18:14;;;;;;;;;;;27.30;43.30;;;;;;1552430;75;756;-57
2022/08/02 05:20:16;;;;;;;;;;;27.20;43.20;;;;;;1540513;75;871;-58
2022/08/02 05:22:18;;;;;;;;;;;27.30;43.10;;;;;;1546357;75;1181;-60
2022/08/02 05:24:21;;;;;;;;;;;27.30;43.10;;;;;;1531939;75;1939;-57
2022/08/02 05:26:22;;;;;;;;;;;27.20;43.10;;;;;;1537453;75;1422;-57
2022/08/02 05:28:24;;;;;;;;;;;27.20;43.10;;;;;;1539635;75;694;-60
2022/08/02 05:30:26;;;;;;;;;;;27.20;43.10;;;;;;1541380;75;676;-60
2022/08/02 05:32:28;;;;;;;;;;;27.20;43.20;;;;;;1539086;75;1169;-59
2022/08/02 05:34:30;;;;;;;;;;;27.20;43.20;;;;;;1527602;75;656;-59
2022/08/02 05:36:32;;;;;;;;;;;27.30;43.10;;;;;;1527374;75;631;-59
2022/08/02 05:38:34;;;;;;;;;;;27.30;43.10;;;;;;1548113;75;645;-59
2022/08/02 05:40:36;;;;;;;;;;;27.40;43.00;;;;;;1543544;75;1594;-60
2022/08/02 05:42:38;;;;;;;;;;;27.40;43.10;;;;;;1540379;75;1130;-59
2022/08/02 05:44:40;;;;;;;;;;;27.40;43.10;;;;;;1548082;75;1929;-59
2022/08/02 05:46:42;;;;;;;;;;;27.30;43.10;;;;;;1545070;75;689;-57
2022/08/02 05:48:44;;;;;;;;;;;27.30;43.20;;;;;;1541211;75;747;-61
2022/08/02 05:50:47;;;;;;;;;;;27.40;43.20;;;;;;1540765;75;812;-62
2022/08/02 05:52:50;;;;;;;;;;;27.30;43.20;;;;;;1532585;75;1145;-62
2022/08/02 05:55:00;;;;;;;;;;;27.30;43.20;;;;;;1526172;75;1546;-61
2022/08/02 05:57:05;;;;;;;;;;;27.40;43.10;;;;;;1529317;75;665;-59
2022/08/02 05:59:12;;;;;;;;;;;27.30;43.10;;;;;;1524404;75;802;-57
2022/08/02 06:01:14;;;;;;;;;;;27.30;43.20;;;;;;1545659;75;744;-59
2022/08/02 06:03:31;;;;;;;;;;;27.30;43.00;;;;;;1537655;75;1047;-57
2022/08/02 06:05:43;;;;;;;;;;;27.30;43.10;;;;;;1531570;75;752;-61
2022/08/02 06:07:46;;;;;;;;;;;27.20;43.10;;;;;;1535844;75;1945;-59
2022/08/02 06:09:48;;;;;;;;;;;27.20;43.10;;;;;;1533154;75;1553;-59
2022/08/02 06:11:51;;;;;;;;;;;27.20;43.10;;;;;;1539873;75;795;-62
2022/08/02 06:13:53;;;;;;;;;;;27.20;43.10;;;;;;1536275;75;1179;-58
2022/08/02 06:15:58;;;;;;;;;;;27.10;43.10;;;;;;1549470;76;732;-59
2022/08/02 06:17:58;;;;;;;;;;;27.10;43.20;;;;;;1546827;74;1639;-57
2022/08/02 06:20:00;;;;;;;;;;;27.10;43.20;;;;;;1556366;75;847;-62
2022/08/02 06:22:13;;;;;;;;;;;27.10;43.20;;;;;;1537964;75;1154;-58
2022/08/02 06:24:07;;;;;;;;;;;27.10;43.30;;;;;;1534830;75;1937;-60
2022/08/02 06:26:09;;;;;;;;;;;27.10;43.20;;;;;;1535830;75;676;-59
2022/08/02 06:28:11;;;;;;;;;;;27.10;43.30;;;;;;1535332;75;690;-59
2022/08/02 06:30:13;;;;;;;;;;;27.10;43.40;;;;;;1535154;75;796;-58
2022/08/02 06:32:18;;;;;;;;;;;27.10;43.40;;;;;;1541215;75;1111;-60
2022/08/02 06:34:20;;;;;;;;;;;27.20;43.40;;;;;;1533228;75;692;-56
2022/08/02 06:36:36;;;;;;;;;;;27.20;43.40;;;;;;1531865;75;731;-60
2022/08/02 06:38:41;;;;;;;;;;;27.20;43.40;;;;;;1531301;75;769;-58
2022/08/02 06:40:45;;;;;;;;;;;27.20;43.40;;;;;;1535261;75;736;-59
2022/08/02 06:42:48;;;;;;;;;;;27.10;43.50;;;;;;1528218;75;1123;-57
2022/08/02 06:44:50;;;;;;;;;;;27.10;43.40;;;;;;1532661;75;1908;-60
2022/08/02 06:46:52;;;;;;;;;;;27.10;43.50;;;;;;1540153;75;791;-61
2022/08/02 06:48:54;;;;;;;;;;;27.10;43.50;;;;;;1549666;75;771;-60
2022/08/02 06:50:56;;;;;;;;;;;27.10;43.50;;;;;;1537569;75;1357;-59
2022/08/02 06:52:59;;;;;;;;;;;27.10;43.50;;;;;;1535513;75;1238;-58
2022/08/02 06:55:02;;;;;;;;;;;27.10;43.50;;;;;;1540736;75;690;-59
2022/08/02 06:57:04;;;;;;;;;;;27.10;43.50;;;;;;1528544;76;753;-59
2022/08/02 06:59:06;;;;;;;;;;;27.10;43.60;;;;;;1528112;75;648;-59
2022/08/02 07:01:08;;;;;;;;;;;27.10;43.60;;;;;;1540781;75;737;-57
2022/08/02 07:03:10;;;;;;;;;;;27.10;43.60;;;;;;1530176;75;1131;-59
2022/08/02 07:05:12;;;;;;;;;;;27.10;43.60;;;;;;1532035;75;1944;-57
2022/08/02 07:07:14;;;;;;;;;;;27.10;43.70;;;;;;1547348;75;693;-57
2022/08/02 07:09:16;;;;;;;;;;;27.10;43.70;;;;;;1546518;75;728;-59
2022/08/02 07:11:18;;;;;;;;;;;27.10;43.60;;;;;;1540989;75;668;-57
2022/08/02 07:13:20;;;;;;;;;;;27.10;43.60;;;;;;1540082;75;1215;-57
2022/08/02 07:15:22;;;;;;;;;;;27.10;43.60;;;;;;1527676;75;698;-57
2022/08/02 07:17:23;;;;;;;;;;;27.10;43.60;;;;;;1539744;75;709;-57
2022/08/02 07:19:25;;;;;;;;;;;27.10;43.60;;;;;;1511884;73;3028;-57
2022/08/02 07:21:27;;;;;;;;;;;27.10;43.60;;;;;;1459332;79;702;-56
2022/08/02 07:23:29;;;;;;;;;;;27.10;43.70;;;;;;1473462;79;1190;-56
2022/08/02 07:25:31;;;;;;;;;;;27.10;43.60;;;;;;1485902;78;1931;-56
2022/08/02 07:27:33;;;;;;;;;;;27.20;43.60;;;;;;1491864;78;734;-57
2022/08/02 07:29:35;;;;;;;;;;;27.10;43.60;;;;;;1485470;78;590;-54
2022/08/02 07:31:36;;;;;;;;;;;27.10;43.70;;;;;;1496510;78;690;-54
2022/08/02 07:33:38;;;;;;;;;;;27.10;43.60;;;;;;1481251;78;1571;-54
2022/08/02 07:35:40;;;;;;;;;;;27.20;43.90;;;;;;1485554;78;737;-55
2022/08/02 07:37:45;;;;;;;;;;;27.30;43.70;;;;;;1448961;80;673;-55
2022/08/02 07:39:46;;;;;;;;;;;27.30;43.60;;;;;;1486237;78;1995;-55
2022/08/02 07:41:50;;;;;;;;;;;27.40;43.60;;;;;;1480570;78;686;-56
2022/08/02 07:43:51;;;;;;;;;;;27.40;43.50;;;;;;1483059;78;1425;-58
2022/08/02 07:45:53;;;;;;;;;;;27.40;43.40;;;;;;1482726;79;1943;-57
2022/08/02 07:47:55;;;;;;;;;;;27.40;43.50;;;;;;1481867;78;1467;-58
2022/08/02 07:49:57;;;;;;;;;;;27.30;43.50;;;;;;1484860;78;835;-55
2022/08/02 07:51:59;;;;;;;;;;;27.30;43.50;;;;;;1486571;79;1165;-55
2022/08/02 07:54:01;;;;;;;;;;;27.30;43.50;;;;;;1478873;78;638;-57
2022/08/02 07:56:03;;;;;;;;;;;27.30;43.50;;;;;;1480957;78;723;-57
2022/08/02 07:58:05;;;;;;;;;;;27.40;43.50;;;;;;1483254;78;797;-55
2022/08/02 08:00:11;;;;;;;;;;;27.40;43.40;;;;;;1456180;80;628;-54
2022/08/02 08:02:13;;;;;;;;;;;27.40;43.40;;;;;;1514162;77;1377;-55
2022/08/02 08:04:16;;;;;;;;;;;27.40;43.40;;;;;;1513047;77;1925;-54
2022/08/02 08:06:18;;;;;;;;;;;27.40;43.40;;;;;;1516820;77;678;-55
2022/08/02 08:08:19;;;;;;;;;;;27.40;43.40;;;;;;1510833;77;785;-57
2022/08/02 08:10:21;;;;;;;;;;;27.40;43.40;;;;;;1515052;77;690;-57
2022/08/02 08:12:23;;;;;;;;;;;27.40;43.40;;;;;;1519700;77;1136;-58
2022/08/02 08:14:25;;;;;;;;;;;27.40;43.40;;;;;;1487002;78;665;-57
2022/08/02 08:16:28;;;;;;;;;;;27.30;43.40;;;;;;1475274;78;1315;-59
2022/08/02 08:18:29;;;;;;;;;;;27.40;43.50;;;;;;1483162;79;694;-59
2022/08/02 08:20:31;;;;;;;;;;;27.40;43.50;;;;;;1456293;80;777;-59
2022/08/02 08:22:33;;;;;;;;;;;27.30;43.50;;;;;;1456371;80;1152;-57
2022/08/02 08:24:35;;;;;;;;;;;27.30;43.50;;;;;;1514940;77;1937;-57
2022/08/02 08:26:38;;;;;;;;;;;27.30;43.60;;;;;;1512918;77;672;-55
2022/08/02 08:28:40;;;;;;;;;;;27.30;43.60;;;;;;1517624;77;591;-56
2022/08/02 08:30:42;;;;;;;;;;;27.20;43.60;;;;;;1519067;77;1459;-57
2022/08/02 08:32:44;;;;;;;;;;;27.30;43.60;;;;;;1480034;78;1114;-58
2022/08/02 08:34:46;;;;;;;;;;;27.30;43.60;;;;;;1455039;80;698;-54
2022/08/02 08:36:48;;;;;;;;;;;27.20;43.60;;;;;;1456413;80;693;-57
2022/08/02 08:38:50;;;;;;;;;;;27.30;43.60;;;;;;1450596;80;738;-56
2022/08/02 08:40:52;;;;;;;;;;;27.30;43.50;;;;;;1478237;79;700;-55
2022/08/02 08:42:54;;;;;;;;;;;27.40;43.60;;;;;;1480181;78;1188;-57
2022/08/02 08:44:55;;;;;;;;;;;27.40;43.50;;;;;;1457005;80;1929;-55
2022/08/02 08:46:57;;;;;;;;;;;27.40;43.50;;;;;;1486839;79;686;-57
2022/08/02 08:49:09;;;;;;;;;;;27.40;43.40;;;;;;1491045;79;695;-55
2022/08/02 08:51:12;;;;;;;;;;;27.40;43.40;;;;;;1489835;78;737;-54
2022/08/02 08:53:14;;;;;;;;;;;27.40;43.40;;;;;;1491747;79;1157;-58
2022/08/02 08:55:16;;;;;;;;;;;27.40;43.40;;;;;;1491653;78;695;-56
2022/08/02 08:57:19;;;;;;;;;;;27.40;43.40;;;;;;1488426;78;1550;-58
2022/08/02 08:59:21;;;;;;;;;;;27.40;43.40;;;;;;1491561;78;663;-57
2022/08/02 09:01:22;;;;;;;;;;;27.50;43.40;;;;;;1498956;78;709;-58
2022/08/02 09:03:24;;;;;;;;;;;27.50;43.30;;;;;;1485707;79;1142;-56
2022/08/02 09:05:26;;;;;;;;;;;27.40;43.30;;;;;;1492464;78;1920;-55
2022/08/02 09:07:28;;;;;;;;;;;27.40;43.30;;;;;;1494451;78;705;-54
2022/08/02 09:09:30;;;;;;;;;;;27.40;43.40;;;;;;1492653;79;677;-54
2022/08/02 09:11:32;;;;;;;;;;;27.40;43.40;;;;;;1489829;78;1451;-57
2022/08/02 09:13:34;;;;;;;;;;;27.40;43.30;;;;;;1488881;78;1098;-56
2022/08/02 09:15:36;;;;;;;;;;;27.40;43.40;;;;;;1486850;78;683;-58
2022/08/02 09:17:40;;;;;;;;;;;27.40;43.40;;;;;;1490591;79;684;-57
2022/08/02 09:19:42;;;;;;;;;;;27.40;43.40;;;;;;1490973;79;1802;-57
2022/08/02 09:21:43;;;;;;;;;;;27.40;43.40;;;;;;1492870;78;829;-54
2022/08/02 09:23:46;;;;;;;;;;;27.40;43.40;;;;;;1493610;78;1149;-54
2022/08/02 09:25:55;;;;;;;;;;;27.40;43.40;;;;;;1483915;79;1938;-55
2022/08/02 09:27:58;;;;;;;;;;;27.30;43.50;;;;;;1494808;78;697;-55
2022/08/02 09:30:00;;;;;;;;;;;27.30;43.60;;;;;;1492794;78;684;-54
2022/08/02 09:32:02;;;;;;;;;;;27.40;43.50;;;;;;1489246;78;1103;-57
2022/08/02 09:34:04;;;;;;;;;;;27.40;43.50;;;;;;1488669;78;665;-57
2022/08/02 09:36:06;;;;;;;;;;;27.40;43.40;;;;;;1488261;78;722;-59
2022/08/02 09:38:09;;;;;;;;;;;27.40;43.40;;;;;;1488344;78;662;-56
2022/08/02 09:40:11;;;;;;;;;;;27.50;43.50;;;;;;1492988;78;1458;-55
2022/08/02 09:42:14;;;;;;;;;;;27.50;43.50;;;;;;1486614;78;1177;-56
2022/08/02 09:44:16;;;;;;;;;;;27.40;43.50;;;;;;1492407;79;692;-57
2022/08/02 09:46:19;;;;;;;;;;;27.40;43.50;;;;;;1485900;79;1925;-56
2022/08/02 09:48:21;;;;;;;;;;;27.40;43.60;;;;;;1486163;78;741;-57
2022/08/02 09:50:22;;;;;;;;;;;27.40;43.50;;;;;;1488471;78;713;-58
2022/08/02 09:52:28;;;;;;;;;;;27.30;43.50;;;;;;1481702;78;1144;-57
2022/08/02 09:54:29;;;;;;;;;;;27.40;43.60;;;;;;1492990;78;1371;-54
2022/08/02 09:56:42;;;;;;;;;;;27.40;43.70;;;;;;1490202;79;664;-58
2022/08/02 09:58:44;;;;;;;;;;;27.40;43.50;;;;;;1485976;78;686;-55
2022/08/02 10:00:55;;;;;;;;;;;27.50;43.50;;;;;;1491879;79;704;-56
2022/08/02 10:03:06;;;;;;;;;;;27.40;43.50;;;;;;1486396;79;1153;-55
2022/08/02 10:05:08;;;;;;;;;;;27.40;43.40;;;;;;1478919;78;1924;-55
2022/08/02 10:07:10;;;;;;;;;;;27.50;43.60;;;;;;1487412;78;874;-54
2022/08/02 10:09:12;;;;;;;;;;;27.50;43.60;;;;;;1489104;78;1453;-54
2022/08/02 10:11:14;;;;;;;;;;;27.40;43.60;;;;;;1488535;78;751;-54
2022/08/02 10:13:16;;;;;;;;;;;27.40;43.60;;;;;;1488904;78;1130;-54
2022/08/02 10:15:18;;;;;;;;;;;27.40;43.60;;;;;;1490096;79;687;-57
2022/08/02 10:17:20;;;;;;;;;;;27.40;43.50;;;;;;1484307;79;682;-56
2022/08/02 10:19:22;;;;;;;;;;;27.30;43.50;;;;;;1496912;78;665;-57
2022/08/02 10:21:29;;;;;;;;;;;27.40;43.60;;;;;;1496258;78;801;-57
2022/08/02 10:23:29;;;;;;;;;;;27.40;43.60;;;;;;1488235;78;1799;-57
2022/08/02 10:25:31;;;;;;;;;;;27.30;43.60;;;;;;1496928;78;1935;-58
2022/08/02 10:27:33;;;;;;;;;;;27.30;43.60;;;;;;1491094;78;682;-58
2022/08/02 10:29:36;;;;;;;;;;;27.40;43.60;;;;;;1489635;78;716;-56
2022/08/02 10:31:42;;;;;;;;;;;27.30;43.60;;;;;;1487960;78;729;-57
2022/08/02 10:33:44;;;;;;;;;;;27.40;43.60;;;;;;1487803;78;1150;-56
2022/08/02 10:35:46;;;;;;;;;;;27.40;43.60;;;;;;1478018;78;1476;-56
2022/08/02 10:37:49;;;;;;;;;;;27.40;43.60;;;;;;1492446;78;674;-56
2022/08/02 10:39:53;;;;;;;;;;;27.30;43.60;;;;;;1489637;78;664;-56
2022/08/02 10:41:55;;;;;;;;;;;27.40;43.60;;;;;;1489485;78;1689;-55
2022/08/02 10:43:56;;;;;;;;;;;27.40;43.60;;;;;;1485843;78;732;-56
2022/08/02 10:46:16;;;;;;;;;;;27.30;43.60;;;;;;1482440;79;1947;-56
2022/08/02 10:48:18;;;;;;;;;;;27.30;43.60;;;;;;1485928;79;739;-55
2022/08/02 10:50:20;;;;;;;;;;;27.30;43.60;;;;;;1479447;79;1461;-56
2022/08/02 10:52:22;;;;;;;;;;;27.20;43.60;;;;;;1486407;78;1142;-56
2022/08/02 10:54:25;;;;;;;;;;;27.30;43.60;;;;;;1479940;79;722;-56
2022/08/02 10:56:28;;;;;;;;;;;27.30;43.60;;;;;;1472545;78;683;-56
2022/08/02 10:58:31;;;;;;;;;;;27.30;43.60;;;;;;1486868;78;1682;-56
2022/08/02 11:00:33;;;;;;;;;;;27.30;43.60;;;;;;1481104;78;690;-57
2022/08/02 11:02:36;;;;;;;;;;;27.30;43.60;;;;;;1485768;78;1238;-56
2022/08/02 11:04:42;;;;;;;;;;;27.20;43.60;;;;;;1484104;78;1328;-56
2022/08/02 11:07:02;;;;;;;;;;;27.20;43.50;;;;;;1483489;78;1946;-55
2022/08/02 11:09:22;;;;;;;;;;;27.30;43.60;;;;;;1484132;78;685;-57
2022/08/02 11:11:24;;;;;;;;;;;27.30;43.60;;;;;;1480510;78;696;-57
2022/08/02 11:13:27;;;;;;;;;;;27.20;43.60;;;;;;1481921;78;1145;-57
2022/08/02 11:15:29;;;;;;;;;;;27.20;43.70;;;;;;1480096;78;667;-58
2022/08/02 11:17:49;;;;;;;;;;;27.30;43.60;;;;;;1488835;78;686;-57
2022/08/02 11:20:09;;;;;;;;;;;27.30;43.70;;;;;;1482751;78;682;-57
2022/08/02 11:22:11;;;;;;;;;;;27.30;43.60;;;;;;1478806;78;1291;-56
2022/08/02 11:24:27;;;;;;;;;;;27.30;43.60;;;;;;1479485;78;700;-57
2022/08/02 11:26:30;;;;;;;;;;;27.30;43.60;;;;;;1480311;79;1924;-56
2022/08/02 11:28:32;;;;;;;;;;;27.30;43.60;;;;;;1480234;78;672;-57
2022/08/02 11:30:34;;;;;;;;;;;27.30;43.60;;;;;;1486312;79;716;-56
2022/08/02 11:32:36;;;;;;;;;;;27.30;43.60;;;;;;1480908;78;1479;-56
2022/08/02 11:34:38;;;;;;;;;;;27.20;43.60;;;;;;1487381;79;676;-57
2022/08/02 11:36:46;;;;;;;;;;;27.20;43.60;;;;;;1480655;78;682;-58
2022/08/02 11:38:48;;;;;;;;;;;27.30;43.60;;;;;;1475435;79;680;-59
2022/08/02 11:40:50;;;;;;;;;;;27.30;43.60;;;;;;1481374;78;727;-58
2022/08/02 11:42:52;;;;;;;;;;;27.40;43.60;;;;;;1477606;78;1446;-57
2022/08/02 11:44:54;;;;;;;;;;;27.40;43.40;;;;;;1477389;78;681;-57
2022/08/02 11:46:57;;;;;;;;;;;27.30;43.40;;;;;;1477948;78;1947;-57
2022/08/02 11:49:00;;;;;;;;;;;27.40;43.30;;;;;;1481010;78;677;-58
2022/08/02 11:51:05;;;;;;;;;;;27.40;42.90;;;;;;1474203;78;1547;-58
2022/08/02 11:53:14;;;;;;;;;;;27.20;42.80;;;;;;1481410;78;1154;-58
2022/08/02 11:55:16;;;;;;;;;;;27.20;42.80;;;;;;1476901;78;660;-58
2022/08/02 11:57:19;;;;;;;;;;;27.20;42.60;;;;;;1483654;78;660;-56
2022/08/02 11:59:21;;;;;;;;;;;27.20;42.70;;;;;;1485882;78;680;-56
2022/08/02 12:01:23;;;;;;;;;;;27.10;42.80;;;;;;1487213;78;1335;-57
2022/08/02 12:03:25;;;;;;;;;;;27.20;42.50;;;;;;1483804;78;1133;-56
2022/08/02 12:05:27;;;;;;;;;;;27.20;42.60;;;;;;1484569;78;679;-56
2022/08/02 12:07:29;;;;;;;;;;;27.20;42.70;;;;;;1482722;78;1956;-58
2022/08/02 12:09:32;;;;;;;;;;;27.20;42.80;;;;;;1491077;78;698;-56
2022/08/02 12:11:35;;;;;;;;;;;27.10;42.80;;;;;;1497337;78;680;-57
2022/08/02 12:13:43;;;;;;;;;;;27.20;42.80;;;;;;1497374;78;1143;-56
2022/08/02 12:15:45;;;;;;;;;;;27.20;42.60;;;;;;1515058;77;1588;-57
2022/08/02 12:20:07;;;;;;;;;;;27.20;42.50;;;;;;1523753;77;1667;-57
2022/08/02 12:22:11;;;;;;;;;;;27.20;41.90;;;;;;1529513;76;1135;-58